Time,TemperatureF,DewpointF,PressureIn,WindDirection,WindDirectionDegrees,WindSpeedMPH,WindSpeedGustMPH,Humidity,HourlyPrecipIn,Conditions,Clouds,dailyrainin,SoftwareType,DateUTC
2013-04-19 00:10:00,47.8,35.4,30.13,East,80,0.0,0.0,62,0.00,,,0.00,WeatherDisplay:10.37,2013-04-19 04:10:00,
2013-04-19 00:20:00,47.7,35.7,30.12,East,86,0.0,0.0,63,0.00,,,0.00,WeatherDisplay:10.37,2013-04-19 04:20:00,
2013-04-19 00:30:00,47.7,36.1,30.11,East,94,0.0,0.0,64,0.00,,,0.00,WeatherDisplay:10.37,2013-04-19 04:30:00,
2013-04-19 00:40:00,47.7,36.1,30.11,East,85,0.0,0.0,64,0.00,,,0.00,WeatherDisplay:10.37,2013-04-19 04:40:00,
2013-04-19 00:50:00,47.7,36.5,30.09,East,80,0.0,0.0,65,0.00,,,0.00,WeatherDisplay:10.37,2013-04-19 04:50:00,
2013-04-19 00:59:00,47.5,37.1,30.09,East,87,1.0,0.0,67,0.00,,,0.00,WeatherDisplay:10.37,2013-04-19 04:59:00,
2013-04-19 01:10:00,47.5,37.1,30.09,ESE,105,1.0,0.0,67,0.00,,,0.00,WeatherDisplay:10.37,2013-04-19 05:10:00,
2013-04-19 01:20:00,47.3,37.3,30.08,East,81,0.0,0.0,68,0.00,,,0.00,WeatherDisplay:10.37,2013-04-19 05:20:00,
2013-04-19 01:30:00,47.7,37.6,30.07,ENE,75,0.0,0.0,68,0.00,,,0.00,WeatherDisplay:10.37,2013-04-19 05:30:00,
2013-04-19 01:40:00,47.7,38.0,30.07,ESE,111,0.0,0.0,69,0.00,,,0.00,WeatherDisplay:10.37,2013-04-19 05:40:00,
2013-04-19 01:50:00,47.7,38.4,30.07,ENE,77,0.0,0.0,70,0.00,,,0.00,WeatherDisplay:10.37,2013-04-19 05:50:00,
2013-04-19 02:00:00,47.7,38.4,30.06,East,96,0.0,0.0,70,0.00,,,0.00,WeatherDisplay:10.37,2013-04-19 06:00:00,
2013-04-19 02:10:00,47.7,38.7,30.05,East,96,2.0,0.0,71,0.00,,,0.00,WeatherDisplay:10.37,2013-04-19 06:10:00,
2013-04-19 02:20:00,47.7,39.1,30.05,ESE,106,1.0,0.0,72,0.00,,,0.00,WeatherDisplay:10.37,2013-04-19 06:20:00,
2013-04-19 02:30:00,47.7,39.4,30.04,ESE,106,5.0,0.0,73,0.00,,,0.00,WeatherDisplay:10.37,2013-04-19 06:30:00,
2013-04-19 02:40:00,47.8,39.6,30.04,ESE,105,1.0,0.0,73,0.00,,,0.00,WeatherDisplay:10.37,2013-04-19 06:40:00,
2013-04-19 02:50:00,47.8,40.0,30.04,ESE,113,5.0,0.0,74,0.00,,,0.00,WeatherDisplay:10.37,2013-04-19 06:50:00,
2013-04-19 03:00:00,47.8,40.0,30.03,East,89,0.0,0.0,74,0.00,,,0.00,WeatherDisplay:10.37,2013-04-19 07:00:00,
2013-04-19 03:10:00,47.8,40.6,30.03,ESE,112,7.0,0.0,76,0.00,,,0.00,WeatherDisplay:10.37,2013-04-19 07:10:00,
2013-04-19 03:20:00,48.0,40.8,30.03,ESE,119,5.0,0.0,76,0.00,,,0.00,WeatherDisplay:10.37,2013-04-19 07:20:00,
2013-04-19 03:30:00,48.2,41.0,30.03,ESE,103,2.0,0.0,76,0.00,,,0.00,WeatherDisplay:10.37,2013-04-19 07:30:00,
2013-04-19 03:40:00,48.2,41.0,30.03,ESE,103,1.0,0.0,76,0.00,,,0.00,WeatherDisplay:10.37,2013-04-19 07:40:00,
2013-04-19 03:50:00,48.3,41.4,30.03,ESE,109,0.0,0.0,77,0.00,,,0.00,WeatherDisplay:10.37,2013-04-19 07:50:00,
2013-04-19 04:00:00,48.4,41.5,30.03,ESE,103,0.0,0.0,77,0.00,,,0.00,WeatherDisplay:10.37,2013-04-19 08:00:00,
2013-04-19 04:10:00,48.6,42.0,30.02,East,95,0.0,0.0,78,0.00,,,0.00,WeatherDisplay:10.37,2013-04-19 08:10:00,
2013-04-19 04:20:00,48.6,42.1,30.01,East,94,1.0,0.0,78,0.00,,,0.00,WeatherDisplay:10.37,2013-04-19 08:20:00,
2013-04-19 04:30:00,48.7,42.5,30.01,ESE,113,0.0,0.0,79,0.00,,,0.00,WeatherDisplay:10.37,2013-04-19 08:30:00,
2013-04-19 04:40:00,48.7,42.5,30.00,ESE,107,0.0,0.0,79,0.00,,,0.00,WeatherDisplay:10.37,2013-04-19 08:40:00,
2013-04-19 04:50:00,48.7,42.5,30.00,East,101,0.0,0.0,79,0.00,,,0.00,WeatherDisplay:10.37,2013-04-19 08:50:00,
2013-04-19 04:59:00,48.7,42.5,29.99,East,91,3.0,0.0,79,0.00,,,0.00,WeatherDisplay:10.37,2013-04-19 08:59:00,
2013-04-19 05:10:00,48.7,42.5,29.99,East,87,2.0,0.0,79,0.00,,,0.00,WeatherDisplay:10.37,2013-04-19 09:10:00,
2013-04-19 05:20:00,48.7,42.8,29.97,East,84,1.0,0.0,80,0.00,,,0.00,WeatherDisplay:10.37,2013-04-19 09:20:00,
2013-04-19 05:30:00,48.7,42.8,29.97,East,101,0.0,0.0,80,0.00,,,0.00,WeatherDisplay:10.37,2013-04-19 09:30:00,
2013-04-19 05:40:00,48.7,42.5,29.97,ENE,75,0.0,0.0,79,0.00,,,0.00,WeatherDisplay:10.37,2013-04-19 09:40:00,
2013-04-19 05:50:00,48.7,42.8,29.97,East,98,2.0,0.0,80,0.00,,,0.00,WeatherDisplay:10.37,2013-04-19 09:50:00,
2013-04-19 05:59:00,48.9,43.3,29.99,East,99,0.0,0.0,81,0.00,,,0.00,WeatherDisplay:10.37,2013-04-19 09:59:00,
2013-04-19 06:10:00,49.1,43.5,30.01,ESE,111,0.0,0.0,81,0.00,,,0.00,WeatherDisplay:10.37,2013-04-19 10:10:00,
2013-04-19 06:20:00,49.5,43.9,30.01,ESE,117,0.0,0.0,81,0.00,,,0.00,WeatherDisplay:10.37,2013-04-19 10:20:00,
2013-04-19 06:30:00,49.6,44.0,30.01,ESE,118,0.0,0.0,81,0.00,,,0.00,WeatherDisplay:10.37,2013-04-19 10:30:00,
2013-04-19 06:40:00,49.8,44.5,30.01,East,98,0.0,0.0,82,0.00,,,0.00,WeatherDisplay:10.37,2013-04-19 10:40:00,
2013-04-19 06:50:00,49.8,44.2,30.00,ENE,62,0.0,0.0,81,0.00,,,0.00,WeatherDisplay:10.37,2013-04-19 10:50:00,
2013-04-19 06:59:00,50.0,44.4,29.99,East,96,0.0,0.0,81,0.00,,,0.00,WeatherDisplay:10.37,2013-04-19 10:59:00,
2013-04-19 07:10:00,50.0,44.4,29.99,SE,128,0.0,0.0,81,0.00,,,0.00,WeatherDisplay:10.37,2013-04-19 11:10:00,
2013-04-19 07:20:00,50.5,45.2,29.99,ESE,123,0.0,0.0,82,0.00,,,0.00,WeatherDisplay:10.37,2013-04-19 11:20:00,
2013-04-19 07:30:00,50.8,45.9,29.99,ESE,108,0.0,0.0,83,0.00,,,0.00,WeatherDisplay:10.37,2013-04-19 11:30:00,
2013-04-19 07:40:00,51.0,46.0,29.99,ESE,106,0.0,0.0,83,0.00,,,0.00,WeatherDisplay:10.37,2013-04-19 11:40:00,
2013-04-19 07:50:00,51.3,46.3,29.99,ESE,105,0.0,0.0,83,0.00,,,0.00,WeatherDisplay:10.37,2013-04-19 11:50:00,
2013-04-19 07:59:00,51.4,46.4,29.98,East,97,0.0,0.0,83,0.00,,,0.00,WeatherDisplay:10.37,2013-04-19 11:59:00,
2013-04-19 08:10:00,52.2,47.2,29.97,ESE,102,0.0,0.0,83,0.00,,,0.00,WeatherDisplay:10.37,2013-04-19 12:10:00,
2013-04-19 08:20:00,52.9,47.9,29.96,ESE,103,3.0,0.0,83,0.00,,,0.00,WeatherDisplay:10.37,2013-04-19 12:20:00,
2013-04-19 08:30:00,53.2,48.2,29.96,ESE,113,0.0,0.0,83,0.00,,,0.00,WeatherDisplay:10.37,2013-04-19 12:30:00,
2013-04-19 08:40:00,53.9,48.9,29.96,ESE,112,5.0,0.0,83,0.00,,,0.00,WeatherDisplay:10.37,2013-04-19 12:40:00,
2013-04-19 08:50:00,54.5,49.4,29.96,ESE,114,2.0,0.0,83,0.00,,,0.00,WeatherDisplay:10.37,2013-04-19 12:50:00,
2013-04-19 08:59:00,55.4,50.0,29.96,ESE,106,5.0,0.0,82,0.00,,,0.00,WeatherDisplay:10.37,2013-04-19 12:59:00,
2013-04-19 09:10:00,55.8,50.0,29.96,ESE,104,0.0,0.0,81,0.00,,,0.00,WeatherDisplay:10.37,2013-04-19 13:10:00,
2013-04-19 09:20:00,56.3,50.5,29.96,ESE,107,1.0,0.0,81,0.00,,,0.00,WeatherDisplay:10.37,2013-04-19 13:20:00,
2013-04-19 09:30:00,56.8,51.1,29.95,East,101,1.0,0.0,81,0.00,,,0.00,WeatherDisplay:10.37,2013-04-19 13:30:00,
2013-04-19 09:40:00,57.5,51.4,29.95,ESE,104,3.0,0.0,80,0.00,,,0.00,WeatherDisplay:10.37,2013-04-19 13:40:00,
2013-04-19 09:50:00,58.1,52.0,29.94,East,93,2.0,0.0,80,0.00,,,0.00,WeatherDisplay:10.37,2013-04-19 13:50:00,
2013-04-19 10:00:00,59.0,52.5,29.95,ESE,109,0.0,0.0,79,0.00,,,0.00,WeatherDisplay:10.37,2013-04-19 14:00:00,
2013-04-19 10:10:00,59.4,52.1,29.94,ESE,111,0.0,0.0,77,0.00,,,0.00,WeatherDisplay:10.37,2013-04-19 14:10:00,
2013-04-19 10:20:00,59.4,52.2,29.93,ESE,118,10.0,0.0,77,0.00,,,0.00,WeatherDisplay:10.37,2013-04-19 14:20:00,
2013-04-19 10:30:00,60.4,53.2,29.94,ESE,113,3.0,0.0,77,0.00,,,0.00,WeatherDisplay:10.37,2013-04-19 14:30:00,
2013-04-19 10:40:00,61.3,53.3,29.93,ESE,112,1.0,0.0,75,0.00,,,0.00,WeatherDisplay:10.37,2013-04-19 14:40:00,
2013-04-19 10:50:00,62.1,53.7,29.93,ESE,121,2.0,0.0,74,0.00,,,0.00,WeatherDisplay:10.37,2013-04-19 14:50:00,
2013-04-19 10:59:00,62.1,53.3,29.93,ESE,116,3.0,0.0,73,0.00,,,0.00,WeatherDisplay:10.37,2013-04-19 14:59:00,
2013-04-19 11:10:00,62.2,53.4,29.92,ESE,112,8.0,0.0,73,0.00,,,0.00,WeatherDisplay:10.37,2013-04-19 15:10:00,
2013-04-19 11:20:00,62.6,53.5,29.91,ESE,114,16.0,0.0,72,0.00,,,0.00,WeatherDisplay:10.37,2013-04-19 15:20:00,
2013-04-19 11:30:00,64.0,54.4,29.91,ESE,111,10.0,0.0,71,0.00,,,0.00,WeatherDisplay:10.37,2013-04-19 15:30:00,
2013-04-19 11:40:00,64.6,54.2,29.90,ESE,119,10.0,0.0,69,0.00,,,0.00,WeatherDisplay:10.37,2013-04-19 15:40:00,
2013-04-19 11:50:00,64.8,54.3,29.90,ESE,110,13.0,0.0,69,0.00,,,0.00,WeatherDisplay:10.37,2013-04-19 15:50:00,
2013-04-19 11:59:00,65.4,54.5,29.90,ESE,115,18.0,0.0,68,0.00,,,0.00,WeatherDisplay:10.37,2013-04-19 15:59:00,
2013-04-19 12:10:00,66.1,55.2,29.89,ESE,114,10.0,0.0,68,0.00,,,0.00,WeatherDisplay:10.37,2013-04-19 16:10:00,
2013-04-19 12:20:00,67.0,55.2,29.88,ESE,109,7.0,0.0,66,0.00,,,0.00,WeatherDisplay:10.37,2013-04-19 16:20:00,
2013-04-19 12:30:00,67.1,54.9,29.88,ESE,113,8.0,0.0,65,0.00,,,0.00,WeatherDisplay:10.37,2013-04-19 16:30:00,
2013-04-19 12:40:00,66.9,54.8,29.88,ESE,118,12.0,0.0,65,0.00,,,0.00,WeatherDisplay:10.37,2013-04-19 16:40:00,
2013-04-19 12:50:00,66.9,54.8,29.87,ESE,116,5.0,0.0,65,0.00,,,0.00,WeatherDisplay:10.37,2013-04-19 16:50:00,
2013-04-19 12:59:00,67.1,54.9,29.86,ESE,115,3.0,0.0,65,0.00,,,0.00,WeatherDisplay:10.37,2013-04-19 16:59:00,
2013-04-19 13:10:00,67.1,54.9,29.86,ESE,112,3.0,0.0,65,0.00,,,0.00,WeatherDisplay:10.37,2013-04-19 17:10:00,
2013-04-19 13:20:00,67.3,55.2,29.86,ESE,110,8.0,0.0,65,0.00,,,0.00,WeatherDisplay:10.37,2013-04-19 17:20:00,
2013-04-19 13:30:00,67.1,54.5,29.85,ESE,102,5.0,0.0,64,0.00,,,0.00,WeatherDisplay:10.37,2013-04-19 17:30:00,
2013-04-19 13:40:00,67.0,54.9,29.85,ESE,113,12.0,0.0,65,0.00,,,0.00,WeatherDisplay:10.37,2013-04-19 17:40:00,
2013-04-19 13:50:00,67.6,55.5,29.84,ESE,111,12.0,0.0,65,0.00,,,0.00,WeatherDisplay:10.37,2013-04-19 17:50:00,
2013-04-19 13:59:00,68.0,55.8,29.84,ESE,102,6.0,0.0,65,0.00,,,0.00,WeatherDisplay:10.37,2013-04-19 17:59:00,
2013-04-19 14:10:00,68.0,55.7,29.83,ESE,111,9.0,0.0,65,0.00,,,0.00,WeatherDisplay:10.37,2013-04-19 18:10:00,
2013-04-19 14:20:00,67.6,55.5,29.82,ESE,107,15.0,0.0,65,0.00,,,0.00,WeatherDisplay:10.37,2013-04-19 18:20:00,
2013-04-19 14:30:00,68.2,55.5,29.82,East,96,3.0,0.0,64,0.00,,,0.00,WeatherDisplay:10.37,2013-04-19 18:30:00,
2013-04-19 14:40:00,68.0,55.4,29.81,ESE,112,3.0,0.0,64,0.00,,,0.00,WeatherDisplay:10.37,2013-04-19 18:40:00,
2013-04-19 14:50:00,68.0,56.2,29.81,ESE,109,6.0,0.0,66,0.00,,,0.00,WeatherDisplay:10.37,2013-04-19 18:50:00,
2013-04-19 14:59:00,68.0,55.8,29.81,ESE,116,3.0,0.0,65,0.00,,,0.00,WeatherDisplay:10.37,2013-04-19 18:59:00,
2013-04-19 15:10:00,67.6,55.9,29.81,ESE,107,5.0,0.0,66,0.00,,,0.00,WeatherDisplay:10.37,2013-04-19 19:10:00,
2013-04-19 15:20:00,67.3,55.6,29.81,ESE,107,6.0,0.0,66,0.00,,,0.00,WeatherDisplay:10.37,2013-04-19 19:20:00,
2013-04-19 15:30:00,67.1,55.8,29.79,ESE,109,3.0,0.0,67,0.00,,,0.00,WeatherDisplay:10.37,2013-04-19 19:30:00,
2013-04-19 15:40:00,67.2,55.9,29.78,ESE,105,2.0,0.0,67,0.00,,,0.00,WeatherDisplay:10.37,2013-04-19 19:40:00,
2013-04-19 15:50:00,67.3,55.5,29.78,ESE,111,7.0,0.0,66,0.00,,,0.00,WeatherDisplay:10.37,2013-04-19 19:50:00,
2013-04-19 16:00:00,66.9,55.2,29.78,ESE,110,7.0,0.0,66,0.00,,,0.00,WeatherDisplay:10.37,2013-04-19 20:00:00,
2013-04-19 16:10:00,66.9,55.2,29.77,ESE,104,8.0,0.0,66,0.00,,,0.00,WeatherDisplay:10.37,2013-04-19 20:10:00,
2013-04-19 16:20:00,67.1,55.8,29.77,ESE,107,8.0,0.0,67,0.00,,,0.00,WeatherDisplay:10.37,2013-04-19 20:20:00,
2013-04-19 16:30:00,67.4,55.6,29.77,ESE,102,12.0,0.0,66,0.00,,,0.00,WeatherDisplay:10.37,2013-04-19 20:30:00,
2013-04-19 16:40:00,67.6,55.9,29.76,ESE,114,12.0,0.0,66,0.00,,,0.00,WeatherDisplay:10.37,2013-04-19 20:40:00,
2013-04-19 16:50:00,68.1,56.7,29.76,ESE,110,14.0,0.0,67,0.00,,,0.00,WeatherDisplay:10.37,2013-04-19 20:50:00,
2013-04-19 16:59:00,67.6,56.7,29.76,ESE,114,9.0,0.0,68,0.00,,,0.00,WeatherDisplay:10.37,2013-04-19 20:59:00,
2013-04-19 17:10:00,66.7,56.6,29.76,East,100,10.0,0.0,70,0.00,,,0.00,WeatherDisplay:10.37,2013-04-19 21:10:00,
2013-04-19 17:20:00,66.2,56.5,29.75,ESE,107,7.0,0.0,71,0.00,,,0.00,WeatherDisplay:10.37,2013-04-19 21:20:00,
2013-04-19 17:30:00,66.2,56.9,29.75,ESE,110,8.0,0.0,72,0.00,,,0.00,WeatherDisplay:10.37,2013-04-19 21:30:00,
2013-04-19 17:40:00,65.8,56.6,29.74,ESE,106,9.0,0.0,72,0.00,,,0.00,WeatherDisplay:10.37,2013-04-19 21:40:00,
2013-04-19 17:50:00,65.8,56.9,29.73,ESE,109,8.0,0.0,73,0.00,,,0.00,WeatherDisplay:10.37,2013-04-19 21:50:00,
2013-04-19 17:59:00,65.3,56.4,29.73,East,87,8.0,0.0,73,0.00,,,0.00,WeatherDisplay:10.37,2013-04-19 21:59:00,
2013-04-19 18:10:00,64.9,56.5,29.73,East,89,2.0,0.0,74,0.00,,,0.00,WeatherDisplay:10.37,2013-04-19 22:10:00,
2013-04-19 18:20:00,64.7,56.6,29.73,East,99,5.0,0.0,75,0.00,,,0.00,WeatherDisplay:10.37,2013-04-19 22:20:00,
2013-04-19 18:30:00,64.4,56.3,29.71,East,95,5.0,0.0,75,0.00,,,0.00,WeatherDisplay:10.37,2013-04-19 22:30:00,
2013-04-19 18:40:00,64.0,56.3,29.71,East,96,9.0,0.0,76,0.00,,,0.00,WeatherDisplay:10.37,2013-04-19 22:40:00,
2013-04-19 18:50:00,63.9,56.5,29.70,ESE,109,8.0,0.0,77,0.00,,,0.00,WeatherDisplay:10.37,2013-04-19 22:50:00,
2013-04-19 18:59:00,63.7,56.3,29.69,ESE,105,9.0,0.0,77,0.00,,,0.00,WeatherDisplay:10.37,2013-04-19 22:59:00,
2013-04-19 19:10:00,63.3,56.3,29.69,ESE,102,12.0,0.0,78,0.00,,,0.00,WeatherDisplay:10.37,2013-04-19 23:10:00,
2013-04-19 19:20:00,63.1,56.5,29.69,East,85,6.0,0.0,79,0.00,,,0.00,WeatherDisplay:10.37,2013-04-19 23:20:00,
2013-04-19 19:30:00,63.1,56.5,29.69,ESE,104,10.0,0.0,79,0.00,,,0.00,WeatherDisplay:10.37,2013-04-19 23:30:00,
2013-04-19 19:40:00,63.0,56.4,29.69,ESE,117,9.0,0.0,79,0.00,,,0.00,WeatherDisplay:10.37,2013-04-19 23:40:00,
2013-04-19 19:50:00,63.1,56.5,29.70,ESE,115,9.0,0.0,79,0.00,,,0.00,WeatherDisplay:10.37,2013-04-19 23:50:00,
2013-04-19 19:59:00,63.1,56.9,29.70,ESE,109,6.0,0.0,80,0.00,,,0.00,WeatherDisplay:10.37,2013-04-19 23:59:00,
2013-04-19 20:10:00,63.0,56.7,29.70,ESE,103,7.0,0.0,80,0.00,,,0.00,WeatherDisplay:10.37,2013-04-20 00:10:00,
2013-04-19 20:20:00,63.0,56.7,29.70,ESE,108,8.0,0.0,80,0.00,,,0.00,WeatherDisplay:10.37,2013-04-20 00:20:00,
2013-04-19 20:30:00,62.8,56.5,29.70,ESE,111,3.0,0.0,80,0.00,,,0.00,WeatherDisplay:10.37,2013-04-20 00:30:00,
2013-04-19 20:40:00,62.8,56.5,29.70,ESE,109,10.0,0.0,80,0.00,,,0.00,WeatherDisplay:10.37,2013-04-20 00:40:00,
2013-04-19 20:50:00,62.8,56.2,29.69,ESE,111,8.0,0.0,79,0.00,,,0.00,WeatherDisplay:10.37,2013-04-20 00:50:00,
2013-04-19 20:59:00,62.8,56.2,29.68,ESE,107,2.0,0.0,79,0.00,,,0.00,WeatherDisplay:10.37,2013-04-20 00:59:00,
2013-04-19 21:10:00,62.8,56.2,29.68,ESE,106,10.0,0.0,79,0.00,,,0.00,WeatherDisplay:10.37,2013-04-20 01:10:00,
2013-04-19 21:20:00,62.6,56.0,29.67,East,100,9.0,0.0,79,0.00,,,0.00,WeatherDisplay:10.37,2013-04-20 01:20:00,
2013-04-19 21:30:00,62.6,56.0,29.67,East,95,1.0,0.0,79,0.00,,,0.00,WeatherDisplay:10.37,2013-04-20 01:30:00,
2013-04-19 21:40:00,62.2,55.6,29.67,ESE,109,9.0,0.0,79,0.00,,,0.00,WeatherDisplay:10.37,2013-04-20 01:40:00,
2013-04-19 21:50:00,62.2,55.6,29.67,ESE,119,5.0,0.0,79,0.00,,,0.00,WeatherDisplay:10.37,2013-04-20 01:50:00,
2013-04-19 21:59:00,62.2,55.6,29.67,East,98,7.0,0.0,79,0.00,,,0.00,WeatherDisplay:10.37,2013-04-20 01:59:00,
2013-04-19 22:10:00,62.2,56.0,29.66,ESE,106,9.0,0.0,80,0.00,,,0.00,WeatherDisplay:10.37,2013-04-20 02:10:00,
2013-04-19 22:20:00,62.2,56.0,29.66,ESE,108,8.0,0.0,80,0.00,,,0.00,WeatherDisplay:10.37,2013-04-20 02:20:00,
2013-04-19 22:30:00,62.2,56.3,29.65,ESE,115,12.0,0.0,81,0.00,,,0.00,WeatherDisplay:10.37,2013-04-20 02:30:00,
2013-04-19 22:40:00,62.1,56.2,29.65,East,100,7.0,0.0,81,0.00,,,0.00,WeatherDisplay:10.37,2013-04-20 02:40:00,
2013-04-19 22:50:00,61.7,56.1,29.64,East,96,6.0,0.0,82,0.00,,,0.00,WeatherDisplay:10.37,2013-04-20 02:50:00,
2013-04-19 22:59:00,61.5,56.0,29.64,East,98,3.0,0.0,82,0.00,,,0.00,WeatherDisplay:10.37,2013-04-20 02:59:00,
2013-04-19 23:10:00,61.5,56.0,29.64,ESE,106,5.0,0.0,82,0.00,,,0.00,WeatherDisplay:10.37,2013-04-20 03:10:00,
2013-04-19 23:20:00,61.3,56.1,29.64,ESE,103,7.0,0.0,83,0.00,,,0.00,WeatherDisplay:10.37,2013-04-20 03:20:00,
2013-04-19 23:30:00,61.2,56.3,29.63,ESE,113,3.0,0.0,84,0.00,,,0.00,WeatherDisplay:10.37,2013-04-20 03:30:00,
2013-04-19 23:40:00,60.8,56.3,29.65,ESE,111,1.0,0.0,85,0.00,,,0.00,WeatherDisplay:10.37,2013-04-20 03:40:00,
2013-04-19 23:50:00,60.6,56.1,29.66,ESE,106,12.0,0.0,85,0.00,,,0.00,WeatherDisplay:10.37,2013-04-20 03:50:00,
2013-04-19 23:59:00,60.3,56.1,29.64,ESE,104,2.0,0.0,86,0.00,,,0.00,WeatherDisplay:10.37,2013-04-20 03:59:00,